KALB/ALB METAR and TAF weather

Enter ICAO airport designator
Station Type Date Time Source
KALB METAR 2018/04/21 10:51 UTC NOAA

KALB 211051Z 29007KT 10SM CLR 02/M04 A3037 RMK AO2 SLP287 T00221039


Station Type Date Time Source
KALB Decoded METAR 2018/04/21 10:51 UTC NOAA

ALBANY INTERNATIONAL AIRPORT, NY, United States (KALB) 42-45N 73-48W
Apr 21, 2018 - 06:51 AM EDT / 2018.04.21 1051 UTC
Wind: from the WNW (290 degrees) at 8 MPH (7 KT):0
Visibility: 10 mile(s):0
Sky conditions: clear
Temperature: 36.0 F (2.2 C)
Dew Point: 25.0 F (-3.9 C)
Relative Humidity: 63%
Pressure (altimeter): 30.37 in. Hg (1028 hPa)
ob: KALB 211051Z 29007KT 10SM CLR 02/M04 A3037 RMK AO2 SLP287 T00221039
cycle: 11

Station Type Date Time Source
KALB TAF 2018/04/21 12:28 UTC NOAA

TAF KALB 211126Z 2112/2212 30007KT P6SM SKC
FM211600 31012G20KT P6SM FEW050 SCT250
FM220200 30004KT P6SM SKC
FM220600 00000KT P6SM SKC


Example: see airport list